Kitwanga, Canada
Current Conditions -  °F | °C
As of 10:00 AM on Wednesday 26 Nov 2014 (Local Time) from CYYD Reporting Station
Overcast Overcast  
Wind Chill: -11°   Ceiling: 5500
Heat Index: -7°   Visibility: 25mi
Dew Point: -7°   Wind: 5mph
Humidity: 100%   Direction: 150°SSE
Pressure: 30.14"   Gusts: NA
Location:  55.1°N, 128.07°W
Report Text: CYYD 261800Z 15004KT 25SM FEW010 OVC055 M07/M07 A3014 RMK SF1SC7 SLP236
Loading
Personal Weather Stations






























Interactive Weather Map New forecast layout! Learn more

10-Day Weather Forecast

Advertisements
Track Severe Weather on mobile